sensor_id;sensor_type;location;lat;lon;timestamp;P1;durP1;ratioP1;P2;durP2;ratioP2
25381;SDS011;16307;42.896;20.874;2024-02-04T00:01:34;36.72;;;14.50;;
25381;SDS011;16307;42.896;20.874;2024-02-04T00:04:21;28.70;;;13.63;;
25381;SDS011;16307;42.896;20.874;2024-02-04T00:07:09;30.90;;;13.13;;
25381;SDS011;16307;42.896;20.874;2024-02-04T00:09:55;29.77;;;12.80;;
25381;SDS011;16307;42.896;20.874;2024-02-04T00:12:42;28.52;;;13.43;;
25381;SDS011;16307;42.896;20.874;2024-02-04T00:15:28;25.77;;;12.77;;
25381;SDS011;16307;42.896;20.874;2024-02-04T00:18:14;25.30;;;11.68;;
25381;SDS011;16307;42.896;20.874;2024-02-04T00:21:00;28.70;;;12.57;;
25381;SDS011;16307;42.896;20.874;2024-02-04T00:23:46;27.42;;;12.45;;
25381;SDS011;16307;42.896;20.874;2024-02-04T00:26:32;24.80;;;12.55;;
25381;SDS011;16307;42.896;20.874;2024-02-04T00:29:19;28.63;;;12.38;;
25381;SDS011;16307;42.896;20.874;2024-02-04T00:32:05;24.70;;;11.65;;
25381;SDS011;16307;42.896;20.874;2024-02-04T00:34:52;27.13;;;13.90;;
25381;SDS011;16307;42.896;20.874;2024-02-04T00:37:38;31.63;;;13.30;;
25381;SDS011;16307;42.896;20.874;2024-02-04T00:40:24;29.40;;;12.98;;
25381;SDS011;16307;42.896;20.874;2024-02-04T00:43:12;60.45;;;24.67;;
25381;SDS011;16307;42.896;20.874;2024-02-04T00:45:58;49.25;;;20.35;;
25381;SDS011;16307;42.896;20.874;2024-02-04T00:48:45;47.28;;;20.70;;
25381;SDS011;16307;42.896;20.874;2024-02-04T00:51:32;42.17;;;19.55;;
25381;SDS011;16307;42.896;20.874;2024-02-04T00:54:18;44.40;;;19.02;;
25381;SDS011;16307;42.896;20.874;2024-02-04T00:57:06;34.15;;;15.35;;
25381;SDS011;16307;42.896;20.874;2024-02-04T00:59:52;30.70;;;14.80;;
25381;SDS011;16307;42.896;20.874;2024-02-04T01:02:39;35.47;;;13.55;;
25381;SDS011;16307;42.896;20.874;2024-02-04T01:05:25;24.63;;;12.45;;
25381;SDS011;16307;42.896;20.874;2024-02-04T01:08:11;25.80;;;12.38;;
25381;SDS011;16307;42.896;20.874;2024-02-04T01:10:57;26.13;;;12.13;;
25381;SDS011;16307;42.896;20.874;2024-02-04T01:13:43;26.65;;;12.52;;
25381;SDS011;16307;42.896;20.874;2024-02-04T01:16:30;29.55;;;13.43;;
25381;SDS011;16307;42.896;20.874;2024-02-04T01:19:16;27.95;;;13.68;;
25381;SDS011;16307;42.896;20.874;2024-02-04T01:22:02;29.42;;;14.00;;
25381;SDS011;16307;42.896;20.874;2024-02-04T01:24:48;31.60;;;15.15;;
25381;SDS011;16307;42.896;20.874;2024-02-04T01:27:35;29.60;;;12.52;;
25381;SDS011;16307;42.896;20.874;2024-02-04T01:30:21;23.10;;;10.90;;
25381;SDS011;16307;42.896;20.874;2024-02-04T01:33:08;26.00;;;12.13;;
25381;SDS011;16307;42.896;20.874;2024-02-04T01:35:54;21.13;;;10.82;;
25381;SDS011;16307;42.896;20.874;2024-02-04T01:38:40;25.02;;;11.43;;
25381;SDS011;16307;42.896;20.874;2024-02-04T01:41:26;23.42;;;11.50;;
25381;SDS011;16307;42.896;20.874;2024-02-04T01:44:13;22.67;;;10.88;;
25381;SDS011;16307;42.896;20.874;2024-02-04T01:47:01;27.85;;;12.38;;
25381;SDS011;16307;42.896;20.874;2024-02-04T01:49:48;26.13;;;12.00;;
25381;SDS011;16307;42.896;20.874;2024-02-04T01:52:36;31.70;;;13.70;;
25381;SDS011;16307;42.896;20.874;2024-02-04T01:55:23;26.30;;;13.07;;
25381;SDS011;16307;42.896;20.874;2024-02-04T01:58:09;28.83;;;13.65;;
25381;SDS011;16307;42.896;20.874;2024-02-04T02:00:55;29.70;;;13.35;;
25381;SDS011;16307;42.896;20.874;2024-02-04T02:03:42;27.17;;;13.20;;
25381;SDS011;16307;42.896;20.874;2024-02-04T02:06:27;31.23;;;13.40;;
25381;SDS011;16307;42.896;20.874;2024-02-04T02:09:14;27.15;;;13.45;;
25381;SDS011;16307;42.896;20.874;2024-02-04T02:12:22;25.17;;;12.88;;
25381;SDS011;16307;42.896;20.874;2024-02-04T02:15:11;29.90;;;13.10;;
25381;SDS011;16307;42.896;20.874;2024-02-04T02:18:09;28.00;;;13.45;;
25381;SDS011;16307;42.896;20.874;2024-02-04T02:21:11;32.65;;;13.85;;
25381;SDS011;16307;42.896;20.874;2024-02-04T02:26:49;32.00;;;12.50;;
25381;SDS011;16307;42.896;20.874;2024-02-04T02:29:35;22.70;;;10.85;;
25381;SDS011;16307;42.896;20.874;2024-02-04T02:32:22;22.95;;;10.75;;
25381;SDS011;16307;42.896;20.874;2024-02-04T02:35:09;23.40;;;10.40;;
25381;SDS011;16307;42.896;20.874;2024-02-04T02:37:56;23.77;;;10.52;;
25381;SDS011;16307;42.896;20.874;2024-02-04T02:40:49;24.55;;;10.82;;
25381;SDS011;16307;42.896;20.874;2024-02-04T02:43:44;23.35;;;10.82;;
25381;SDS011;16307;42.896;20.874;2024-02-04T02:46:30;22.95;;;11.07;;
25381;SDS011;16307;42.896;20.874;2024-02-04T02:49:17;25.13;;;10.07;;
25381;SDS011;16307;42.896;20.874;2024-02-04T02:52:03;18.45;;;9.32;;
25381;SDS011;16307;42.896;20.874;2024-02-04T02:54:49;20.23;;;9.35;;
25381;SDS011;16307;42.896;20.874;2024-02-04T02:57:36;15.55;;;7.38;;
25381;SDS011;16307;42.896;20.874;2024-02-04T03:00:22;18.55;;;8.60;;
25381;SDS011;16307;42.896;20.874;2024-02-04T03:03:09;16.30;;;8.05;;
25381;SDS011;16307;42.896;20.874;2024-02-04T03:05:55;19.77;;;8.80;;
25381;SDS011;16307;42.896;20.874;2024-02-04T03:08:41;18.73;;;8.60;;
25381;SDS011;16307;42.896;20.874;2024-02-04T03:11:27;20.45;;;8.65;;
25381;SDS011;16307;42.896;20.874;2024-02-04T03:14:16;18.83;;;9.23;;
25381;SDS011;16307;42.896;20.874;2024-02-04T03:17:03;20.45;;;9.38;;
25381;SDS011;16307;42.896;20.874;2024-02-04T03:19:49;20.58;;;8.82;;
25381;SDS011;16307;42.896;20.874;2024-02-04T03:22:41;19.13;;;8.23;;
25381;SDS011;16307;42.896;20.874;2024-02-04T03:25:28;20.10;;;8.27;;
25381;SDS011;16307;42.896;20.874;2024-02-04T03:28:15;17.63;;;8.02;;
25381;SDS011;16307;42.896;20.874;2024-02-04T03:31:02;16.85;;;8.43;;
25381;SDS011;16307;42.896;20.874;2024-02-04T03:33:49;17.80;;;7.95;;
25381;SDS011;16307;42.896;20.874;2024-02-04T03:36:36;15.77;;;7.85;;
25381;SDS011;16307;42.896;20.874;2024-02-04T03:39:23;18.50;;;8.45;;
25381;SDS011;16307;42.896;20.874;2024-02-04T03:42:09;17.30;;;8.88;;
25381;SDS011;16307;42.896;20.874;2024-02-04T03:44:55;16.08;;;7.32;;
25381;SDS011;16307;42.896;20.874;2024-02-04T03:47:41;16.20;;;7.82;;
25381;SDS011;16307;42.896;20.874;2024-02-04T03:50:28;18.48;;;8.60;;
25381;SDS011;16307;42.896;20.874;2024-02-04T03:53:14;18.98;;;8.40;;
25381;SDS011;16307;42.896;20.874;2024-02-04T03:56:01;19.80;;;7.90;;
25381;SDS011;16307;42.896;20.874;2024-02-04T03:58:47;14.70;;;8.35;;
25381;SDS011;16307;42.896;20.874;2024-02-04T04:01:33;20.17;;;9.45;;
25381;SDS011;16307;42.896;20.874;2024-02-04T04:04:19;18.83;;;8.57;;
25381;SDS011;16307;42.896;20.874;2024-02-04T04:07:05;40.10;;;17.02;;
25381;SDS011;16307;42.896;20.874;2024-02-04T04:09:51;19.70;;;9.48;;
25381;SDS011;16307;42.896;20.874;2024-02-04T04:12:37;17.63;;;8.38;;
25381;SDS011;16307;42.896;20.874;2024-02-04T04:15:23;25.60;;;11.43;;
25381;SDS011;16307;42.896;20.874;2024-02-04T04:18:09;21.92;;;11.10;;
25381;SDS011;16307;42.896;20.874;2024-02-04T04:20:59;18.65;;;9.00;;
25381;SDS011;16307;42.896;20.874;2024-02-04T04:23:45;21.08;;;8.18;;
25381;SDS011;16307;42.896;20.874;2024-02-04T04:26:31;23.48;;;8.43;;
25381;SDS011;16307;42.896;20.874;2024-02-04T04:29:19;17.63;;;8.05;;
25381;SDS011;16307;42.896;20.874;2024-02-04T04:32:05;18.08;;;7.82;;
25381;SDS011;16307;42.896;20.874;2024-02-04T04:34:51;20.25;;;7.93;;
25381;SDS011;16307;42.896;20.874;2024-02-04T04:37:37;18.38;;;8.07;;
25381;SDS011;16307;42.896;20.874;2024-02-04T04:40:23;19.70;;;8.95;;
25381;SDS011;16307;42.896;20.874;2024-02-04T04:43:10;24.15;;;9.85;;
25381;SDS011;16307;42.896;20.874;2024-02-04T04:45:56;19.63;;;8.73;;
25381;SDS011;16307;42.896;20.874;2024-02-04T04:48:42;14.85;;;7.35;;
25381;SDS011;16307;42.896;20.874;2024-02-04T04:51:28;20.63;;;9.45;;
25381;SDS011;16307;42.896;20.874;2024-02-04T04:54:14;19.60;;;8.95;;
25381;SDS011;16307;42.896;20.874;2024-02-04T04:57:00;23.55;;;9.45;;
25381;SDS011;16307;42.896;20.874;2024-02-04T04:59:46;21.98;;;9.48;;
25381;SDS011;16307;42.896;20.874;2024-02-04T05:02:32;21.20;;;9.38;;
25381;SDS011;16307;42.896;20.874;2024-02-04T05:05:19;18.85;;;8.63;;
25381;SDS011;16307;42.896;20.874;2024-02-04T05:08:05;19.20;;;9.07;;
25381;SDS011;16307;42.896;20.874;2024-02-04T05:10:52;20.52;;;8.38;;
25381;SDS011;16307;42.896;20.874;2024-02-04T05:13:38;18.08;;;8.68;;
25381;SDS011;16307;42.896;20.874;2024-02-04T05:16:25;19.85;;;9.10;;
25381;SDS011;16307;42.896;20.874;2024-02-04T05:19:11;19.15;;;8.68;;
25381;SDS011;16307;42.896;20.874;2024-02-04T05:21:58;21.77;;;8.73;;
25381;SDS011;16307;42.896;20.874;2024-02-04T05:24:43;21.83;;;9.48;;
25381;SDS011;16307;42.896;20.874;2024-02-04T05:27:30;20.85;;;9.15;;
25381;SDS011;16307;42.896;20.874;2024-02-04T05:30:15;18.55;;;8.35;;
25381;SDS011;16307;42.896;20.874;2024-02-04T05:33:01;19.92;;;8.95;;
25381;SDS011;16307;42.896;20.874;2024-02-04T05:35:48;17.20;;;8.60;;
25381;SDS011;16307;42.896;20.874;2024-02-04T05:38:34;17.40;;;8.43;;
25381;SDS011;16307;42.896;20.874;2024-02-04T05:41:20;21.92;;;8.70;;
25381;SDS011;16307;42.896;20.874;2024-02-04T05:44:07;19.52;;;9.35;;
25381;SDS011;16307;42.896;20.874;2024-02-04T05:46:56;24.70;;;11.07;;
25381;SDS011;16307;42.896;20.874;2024-02-04T05:49:42;22.83;;;10.25;;
25381;SDS011;16307;42.896;20.874;2024-02-04T05:52:28;25.40;;;11.27;;
25381;SDS011;16307;42.896;20.874;2024-02-04T05:55:14;21.38;;;10.50;;
25381;SDS011;16307;42.896;20.874;2024-02-04T05:58:01;23.48;;;10.80;;
25381;SDS011;16307;42.896;20.874;2024-02-04T06:00:47;24.40;;;10.15;;
25381;SDS011;16307;42.896;20.874;2024-02-04T06:03:33;19.45;;;9.57;;
25381;SDS011;16307;42.896;20.874;2024-02-04T06:06:19;19.25;;;9.32;;
25381;SDS011;16307;42.896;20.874;2024-02-04T06:09:05;18.00;;;9.77;;
25381;SDS011;16307;42.896;20.874;2024-02-04T06:11:52;20.85;;;10.02;;
25381;SDS011;16307;42.896;20.874;2024-02-04T06:14:38;20.48;;;9.90;;
25381;SDS011;16307;42.896;20.874;2024-02-04T06:17:26;19.08;;;8.85;;
25381;SDS011;16307;42.896;20.874;2024-02-04T06:20:12;22.13;;;9.73;;
25381;SDS011;16307;42.896;20.874;2024-02-04T06:22:58;22.23;;;10.13;;
25381;SDS011;16307;42.896;20.874;2024-02-04T06:25:44;20.77;;;10.00;;
25381;SDS011;16307;42.896;20.874;2024-02-04T06:28:31;22.50;;;9.27;;
25381;SDS011;16307;42.896;20.874;2024-02-04T06:31:17;21.17;;;9.95;;
25381;SDS011;16307;42.896;20.874;2024-02-04T06:34:04;19.70;;;8.85;;
25381;SDS011;16307;42.896;20.874;2024-02-04T06:36:50;21.20;;;9.55;;
25381;SDS011;16307;42.896;20.874;2024-02-04T06:39:37;18.38;;;8.82;;
25381;SDS011;16307;42.896;20.874;2024-02-04T06:42:24;16.52;;;7.85;;
25381;SDS011;16307;42.896;20.874;2024-02-04T06:45:10;19.17;;;8.63;;
25381;SDS011;16307;42.896;20.874;2024-02-04T06:47:56;18.83;;;8.82;;
25381;SDS011;16307;42.896;20.874;2024-02-04T06:50:42;19.65;;;8.98;;
25381;SDS011;16307;42.896;20.874;2024-02-04T06:53:31;20.48;;;9.82;;
25381;SDS011;16307;42.896;20.874;2024-02-04T06:56:17;21.92;;;10.18;;
25381;SDS011;16307;42.896;20.874;2024-02-04T06:59:03;22.58;;;10.27;;
25381;SDS011;16307;42.896;20.874;2024-02-04T07:01:50;20.10;;;9.70;;
25381;SDS011;16307;42.896;20.874;2024-02-04T07:04:36;20.30;;;9.63;;
25381;SDS011;16307;42.896;20.874;2024-02-04T07:07:22;18.08;;;9.45;;
25381;SDS011;16307;42.896;20.874;2024-02-04T07:10:09;21.40;;;9.52;;
25381;SDS011;16307;42.896;20.874;2024-02-04T07:12:55;23.40;;;11.20;;
25381;SDS011;16307;42.896;20.874;2024-02-04T07:15:41;23.85;;;9.88;;
25381;SDS011;16307;42.896;20.874;2024-02-04T07:18:27;19.10;;;9.13;;
25381;SDS011;16307;42.896;20.874;2024-02-04T07:21:14;26.55;;;11.48;;
25381;SDS011;16307;42.896;20.874;2024-02-04T07:24:00;29.58;;;13.93;;
25381;SDS011;16307;42.896;20.874;2024-02-04T07:26:47;26.13;;;11.88;;
25381;SDS011;16307;42.896;20.874;2024-02-04T07:29:33;32.08;;;15.57;;
25381;SDS011;16307;42.896;20.874;2024-02-04T07:32:20;26.58;;;12.40;;
25381;SDS011;16307;42.896;20.874;2024-02-04T07:35:07;23.40;;;10.13;;
25381;SDS011;16307;42.896;20.874;2024-02-04T07:37:55;23.35;;;10.77;;
25381;SDS011;16307;42.896;20.874;2024-02-04T07:40:41;18.05;;;9.05;;
25381;SDS011;16307;42.896;20.874;2024-02-04T07:43:28;18.33;;;8.75;;
25381;SDS011;16307;42.896;20.874;2024-02-04T07:46:14;17.80;;;9.80;;
25381;SDS011;16307;42.896;20.874;2024-02-04T07:49:00;17.52;;;8.50;;
25381;SDS011;16307;42.896;20.874;2024-02-04T07:51:46;21.73;;;8.73;;
25381;SDS011;16307;42.896;20.874;2024-02-04T07:54:32;18.50;;;8.27;;
25381;SDS011;16307;42.896;20.874;2024-02-04T07:57:18;15.48;;;8.20;;
25381;SDS011;16307;42.896;20.874;2024-02-04T08:00:04;19.00;;;8.90;;
25381;SDS011;16307;42.896;20.874;2024-02-04T08:05:42;36.20;;;14.48;;
25381;SDS011;16307;42.896;20.874;2024-02-04T08:08:28;50.95;;;23.20;;
25381;SDS011;16307;42.896;20.874;2024-02-04T08:11:18;52.78;;;24.40;;
25381;SDS011;16307;42.896;20.874;2024-02-04T08:14:04;62.08;;;31.58;;
25381;SDS011;16307;42.896;20.874;2024-02-04T08:16:50;67.63;;;33.03;;
25381;SDS011;16307;42.896;20.874;2024-02-04T08:19:36;56.00;;;29.60;;
25381;SDS011;16307;42.896;20.874;2024-02-04T08:22:22;69.38;;;35.88;;
25381;SDS011;16307;42.896;20.874;2024-02-04T08:25:08;78.13;;;37.97;;
25381;SDS011;16307;42.896;20.874;2024-02-04T08:27:58;88.18;;;41.30;;
25381;SDS011;16307;42.896;20.874;2024-02-04T08:30:44;105.15;;;48.85;;
25381;SDS011;16307;42.896;20.874;2024-02-04T08:33:30;96.07;;;46.47;;
25381;SDS011;16307;42.896;20.874;2024-02-04T08:36:16;92.82;;;45.97;;
25381;SDS011;16307;42.896;20.874;2024-02-04T08:39:03;88.63;;;44.05;;
25381;SDS011;16307;42.896;20.874;2024-02-04T08:41:50;95.15;;;45.47;;
25381;SDS011;16307;42.896;20.874;2024-02-04T08:44:36;104.75;;;50.83;;
25381;SDS011;16307;42.896;20.874;2024-02-04T08:47:24;104.00;;;49.63;;
25381;SDS011;16307;42.896;20.874;2024-02-04T08:50:11;91.82;;;43.60;;
25381;SDS011;16307;42.896;20.874;2024-02-04T08:52:58;85.45;;;38.97;;
25381;SDS011;16307;42.896;20.874;2024-02-04T08:55:44;71.75;;;34.88;;
25381;SDS011;16307;42.896;20.874;2024-02-04T08:58:30;65.47;;;29.52;;
25381;SDS011;16307;42.896;20.874;2024-02-04T09:01:16;47.40;;;24.58;;
25381;SDS011;16307;42.896;20.874;2024-02-04T09:04:02;43.85;;;23.05;;
25381;SDS011;16307;42.896;20.874;2024-02-04T09:06:49;39.95;;;20.23;;
25381;SDS011;16307;42.896;20.874;2024-02-04T09:09:35;30.08;;;13.80;;
25381;SDS011;16307;42.896;20.874;2024-02-04T09:12:23;25.55;;;10.20;;
25381;SDS011;16307;42.896;20.874;2024-02-04T09:15:09;22.42;;;11.35;;
25381;SDS011;16307;42.896;20.874;2024-02-04T09:17:56;23.27;;;10.30;;
25381;SDS011;16307;42.896;20.874;2024-02-04T09:20:42;27.23;;;12.15;;
25381;SDS011;16307;42.896;20.874;2024-02-04T09:23:28;24.48;;;11.38;;
25381;SDS011;16307;42.896;20.874;2024-02-04T09:26:14;21.70;;;10.25;;
25381;SDS011;16307;42.896;20.874;2024-02-04T09:29:04;22.08;;;10.65;;
25381;SDS011;16307;42.896;20.874;2024-02-04T09:31:51;20.25;;;10.32;;
25381;SDS011;16307;42.896;20.874;2024-02-04T09:34:38;22.40;;;10.15;;
25381;SDS011;16307;42.896;20.874;2024-02-04T09:37:25;22.92;;;9.75;;
25381;SDS011;16307;42.896;20.874;2024-02-04T09:40:12;22.08;;;8.73;;
25381;SDS011;16307;42.896;20.874;2024-02-04T09:42:58;20.67;;;10.13;;
25381;SDS011;16307;42.896;20.874;2024-02-04T09:45:44;23.00;;;9.65;;
25381;SDS011;16307;42.896;20.874;2024-02-04T09:48:31;18.90;;;8.95;;
25381;SDS011;16307;42.896;20.874;2024-02-04T09:51:19;18.92;;;8.85;;
25381;SDS011;16307;42.896;20.874;2024-02-04T09:54:07;15.27;;;7.72;;
25381;SDS011;16307;42.896;20.874;2024-02-04T09:56:57;13.10;;;7.00;;
25381;SDS011;16307;42.896;20.874;2024-02-04T09:59:44;16.88;;;7.10;;
25381;SDS011;16307;42.896;20.874;2024-02-04T10:02:30;13.23;;;6.65;;
25381;SDS011;16307;42.896;20.874;2024-02-04T10:05:18;14.73;;;7.25;;
25381;SDS011;16307;42.896;20.874;2024-02-04T10:08:04;23.27;;;8.82;;
25381;SDS011;16307;42.896;20.874;2024-02-04T10:10:51;11.75;;;5.10;;
25381;SDS011;16307;42.896;20.874;2024-02-04T10:13:47;9.20;;;4.03;;
25381;SDS011;16307;42.896;20.874;2024-02-04T10:16:37;8.52;;;4.65;;
25381;SDS011;16307;42.896;20.874;2024-02-04T10:19:24;8.13;;;3.50;;
25381;SDS011;16307;42.896;20.874;2024-02-04T10:22:12;9.07;;;3.30;;
25381;SDS011;16307;42.896;20.874;2024-02-04T10:25:05;9.55;;;4.53;;
25381;SDS011;16307;42.896;20.874;2024-02-04T10:27:53;14.80;;;5.60;;
25381;SDS011;16307;42.896;20.874;2024-02-04T10:30:39;18.02;;;5.93;;
25381;SDS011;16307;42.896;20.874;2024-02-04T10:33:26;13.40;;;5.63;;
25381;SDS011;16307;42.896;20.874;2024-02-04T10:36:17;17.33;;;6.30;;
25381;SDS011;16307;42.896;20.874;2024-02-04T10:39:04;11.25;;;5.65;;
25381;SDS011;16307;42.896;20.874;2024-02-04T10:41:51;14.90;;;5.65;;
25381;SDS011;16307;42.896;20.874;2024-02-04T10:44:38;12.95;;;6.13;;
25381;SDS011;16307;42.896;20.874;2024-02-04T10:47:44;16.10;;;6.80;;
25381;SDS011;16307;42.896;20.874;2024-02-04T10:50:37;17.05;;;6.60;;
25381;SDS011;16307;42.896;20.874;2024-02-04T10:53:33;12.95;;;5.53;;
25381;SDS011;16307;42.896;20.874;2024-02-04T10:56:37;13.43;;;6.40;;
25381;SDS011;16307;42.896;20.874;2024-02-04T10:59:27;15.63;;;6.25;;
25381;SDS011;16307;42.896;20.874;2024-02-04T11:02:15;15.35;;;6.75;;
25381;SDS011;16307;42.896;20.874;2024-02-04T11:05:03;15.95;;;6.45;;
25381;SDS011;16307;42.896;20.874;2024-02-04T11:07:50;17.88;;;7.07;;
25381;SDS011;16307;42.896;20.874;2024-02-04T11:10:37;11.23;;;5.68;;
25381;SDS011;16307;42.896;20.874;2024-02-04T11:13:25;15.40;;;6.75;;
25381;SDS011;16307;42.896;20.874;2024-02-04T11:16:21;13.80;;;4.85;;
25381;SDS011;16307;42.896;20.874;2024-02-04T11:19:54;18.70;;;5.80;;
25381;SDS011;16307;42.896;20.874;2024-02-04T11:28:32;11.65;;;4.53;;
25381;SDS011;16307;42.896;20.874;2024-02-04T11:31:19;35.08;;;7.53;;
25381;SDS011;16307;42.896;20.874;2024-02-04T11:34:05;14.95;;;5.75;;
25381;SDS011;16307;42.896;20.874;2024-02-04T11:36:52;12.43;;;5.15;;
25381;SDS011;16307;42.896;20.874;2024-02-04T11:39:47;13.52;;;5.10;;
25381;SDS011;16307;42.896;20.874;2024-02-04T11:42:34;11.95;;;5.97;;
25381;SDS011;16307;42.896;20.874;2024-02-04T11:45:20;8.73;;;4.97;;
25381;SDS011;16307;42.896;20.874;2024-02-04T11:48:07;13.88;;;5.50;;
25381;SDS011;16307;42.896;20.874;2024-02-04T11:50:57;9.50;;;4.95;;
25381;SDS011;16307;42.896;20.874;2024-02-04T11:53:43;20.15;;;6.82;;
25381;SDS011;16307;42.896;20.874;2024-02-04T11:56:30;20.70;;;7.18;;
25381;SDS011;16307;42.896;20.874;2024-02-04T11:59:27;21.95;;;8.00;;
25381;SDS011;16307;42.896;20.874;2024-02-04T12:02:16;19.10;;;7.82;;
25381;SDS011;16307;42.896;20.874;2024-02-04T12:05:03;22.33;;;6.75;;
25381;SDS011;16307;42.896;20.874;2024-02-04T12:07:50;21.75;;;7.72;;
25381;SDS011;16307;42.896;20.874;2024-02-04T12:10:37;18.13;;;7.78;;
25381;SDS011;16307;42.896;20.874;2024-02-04T12:13:23;18.45;;;7.47;;
25381;SDS011;16307;42.896;20.874;2024-02-04T12:16:10;21.70;;;8.10;;
25381;SDS011;16307;42.896;20.874;2024-02-04T12:18:56;15.85;;;6.82;;
25381;SDS011;16307;42.896;20.874;2024-02-04T12:21:44;15.52;;;6.35;;
25381;SDS011;16307;42.896;20.874;2024-02-04T12:24:30;15.02;;;5.68;;
25381;SDS011;16307;42.896;20.874;2024-02-04T12:27:16;12.40;;;5.40;;
25381;SDS011;16307;42.896;20.874;2024-02-04T12:30:03;12.25;;;6.20;;
25381;SDS011;16307;42.896;20.874;2024-02-04T12:32:57;21.98;;;6.82;;
25381;SDS011;16307;42.896;20.874;2024-02-04T12:35:48;18.30;;;6.53;;
25381;SDS011;16307;42.896;20.874;2024-02-04T12:38:36;15.43;;;5.93;;
25381;SDS011;16307;42.896;20.874;2024-02-04T12:41:22;13.73;;;5.70;;
25381;SDS011;16307;42.896;20.874;2024-02-04T12:44:10;17.67;;;6.50;;
25381;SDS011;16307;42.896;20.874;2024-02-04T12:46:56;14.10;;;6.13;;
25381;SDS011;16307;42.896;20.874;2024-02-04T12:49:42;13.32;;;6.00;;
25381;SDS011;16307;42.896;20.874;2024-02-04T12:52:29;13.50;;;6.50;;
25381;SDS011;16307;42.896;20.874;2024-02-04T12:55:23;13.70;;;5.45;;
25381;SDS011;16307;42.896;20.874;2024-02-04T12:58:11;14.18;;;6.93;;
25381;SDS011;16307;42.896;20.874;2024-02-04T13:01:04;18.00;;;7.88;;
25381;SDS011;16307;42.896;20.874;2024-02-04T13:03:54;17.95;;;8.48;;
25381;SDS011;16307;42.896;20.874;2024-02-04T13:06:41;16.80;;;8.20;;
25381;SDS011;16307;42.896;20.874;2024-02-04T13:09:27;19.20;;;8.38;;
25381;SDS011;16307;42.896;20.874;2024-02-04T13:12:14;17.70;;;8.25;;
25381;SDS011;16307;42.896;20.874;2024-02-04T13:15:01;24.40;;;9.38;;
25381;SDS011;16307;42.896;20.874;2024-02-04T13:17:48;18.13;;;8.85;;
25381;SDS011;16307;42.896;20.874;2024-02-04T13:20:35;29.38;;;12.25;;
25381;SDS011;16307;42.896;20.874;2024-02-04T13:23:21;23.20;;;10.40;;
25381;SDS011;16307;42.896;20.874;2024-02-04T13:26:07;20.42;;;9.23;;
25381;SDS011;16307;42.896;20.874;2024-02-04T13:28:53;23.13;;;9.40;;
25381;SDS011;16307;42.896;20.874;2024-02-04T13:31:40;22.83;;;9.73;;
25381;SDS011;16307;42.896;20.874;2024-02-04T13:34:26;18.60;;;9.13;;
25381;SDS011;16307;42.896;20.874;2024-02-04T13:37:13;20.35;;;8.98;;
25381;SDS011;16307;42.896;20.874;2024-02-04T13:39:59;20.20;;;9.13;;
25381;SDS011;16307;42.896;20.874;2024-02-04T13:42:45;19.77;;;9.32;;
25381;SDS011;16307;42.896;20.874;2024-02-04T13:45:32;24.55;;;9.38;;
25381;SDS011;16307;42.896;20.874;2024-02-04T13:48:18;24.00;;;9.40;;
25381;SDS011;16307;42.896;20.874;2024-02-04T13:51:05;19.42;;;8.93;;
25381;SDS011;16307;42.896;20.874;2024-02-04T13:53:51;22.42;;;8.95;;
25381;SDS011;16307;42.896;20.874;2024-02-04T13:56:37;25.10;;;10.05;;
25381;SDS011;16307;42.896;20.874;2024-02-04T13:59:23;34.45;;;10.30;;
25381;SDS011;16307;42.896;20.874;2024-02-04T14:02:09;27.17;;;9.75;;
25381;SDS011;16307;42.896;20.874;2024-02-04T14:04:56;29.00;;;9.98;;
25381;SDS011;16307;42.896;20.874;2024-02-04T14:07:43;24.10;;;10.38;;
25381;SDS011;16307;42.896;20.874;2024-02-04T14:10:29;25.02;;;11.85;;
25381;SDS011;16307;42.896;20.874;2024-02-04T14:13:15;28.60;;;11.10;;
25381;SDS011;16307;42.896;20.874;2024-02-04T14:16:02;33.42;;;12.20;;
25381;SDS011;16307;42.896;20.874;2024-02-04T14:18:49;40.42;;;16.35;;
25381;SDS011;16307;42.896;20.874;2024-02-04T14:21:35;34.20;;;14.90;;
25381;SDS011;16307;42.896;20.874;2024-02-04T14:24:22;38.55;;;15.65;;
25381;SDS011;16307;42.896;20.874;2024-02-04T14:27:08;38.78;;;17.95;;
25381;SDS011;16307;42.896;20.874;2024-02-04T14:29:55;43.55;;;17.92;;
25381;SDS011;16307;42.896;20.874;2024-02-04T14:32:41;42.95;;;16.67;;
25381;SDS011;16307;42.896;20.874;2024-02-04T14:35:27;47.65;;;17.80;;
25381;SDS011;16307;42.896;20.874;2024-02-04T14:38:14;40.65;;;16.02;;
25381;SDS011;16307;42.896;20.874;2024-02-04T14:41:00;38.47;;;14.43;;
25381;SDS011;16307;42.896;20.874;2024-02-04T14:43:46;41.60;;;17.65;;
25381;SDS011;16307;42.896;20.874;2024-02-04T14:46:35;45.03;;;18.75;;
25381;SDS011;16307;42.896;20.874;2024-02-04T14:49:22;44.97;;;19.42;;
25381;SDS011;16307;42.896;20.874;2024-02-04T14:52:09;44.70;;;19.45;;
25381;SDS011;16307;42.896;20.874;2024-02-04T14:54:55;48.70;;;19.00;;
25381;SDS011;16307;42.896;20.874;2024-02-04T14:57:41;48.78;;;19.40;;
25381;SDS011;16307;42.896;20.874;2024-02-04T15:00:27;46.55;;;18.92;;
25381;SDS011;16307;42.896;20.874;2024-02-04T15:03:14;41.70;;;18.20;;
25381;SDS011;16307;42.896;20.874;2024-02-04T15:06:01;39.97;;;18.88;;
25381;SDS011;16307;42.896;20.874;2024-02-04T15:08:47;47.90;;;17.63;;
25381;SDS011;16307;42.896;20.874;2024-02-04T15:11:34;40.55;;;18.20;;
25381;SDS011;16307;42.896;20.874;2024-02-04T15:14:20;40.70;;;17.08;;
25381;SDS011;16307;42.896;20.874;2024-02-04T15:17:06;40.97;;;16.60;;
25381;SDS011;16307;42.896;20.874;2024-02-04T15:19:53;47.88;;;16.60;;
25381;SDS011;16307;42.896;20.874;2024-02-04T15:22:40;40.90;;;17.58;;
25381;SDS011;16307;42.896;20.874;2024-02-04T15:25:26;37.20;;;17.17;;
25381;SDS011;16307;42.896;20.874;2024-02-04T15:28:13;45.28;;;19.35;;
25381;SDS011;16307;42.896;20.874;2024-02-04T15:30:59;44.90;;;19.55;;
25381;SDS011;16307;42.896;20.874;2024-02-04T15:33:46;55.55;;;19.90;;
25381;SDS011;16307;42.896;20.874;2024-02-04T15:36:33;46.83;;;21.95;;
25381;SDS011;16307;42.896;20.874;2024-02-04T15:39:20;49.00;;;20.67;;
25381;SDS011;16307;42.896;20.874;2024-02-04T15:42:07;51.47;;;20.73;;
25381;SDS011;16307;42.896;20.874;2024-02-04T15:44:53;64.43;;;20.90;;
25381;SDS011;16307;42.896;20.874;2024-02-04T15:47:43;41.25;;;18.77;;
25381;SDS011;16307;42.896;20.874;2024-02-04T15:50:36;50.78;;;20.88;;
25381;SDS011;16307;42.896;20.874;2024-02-04T15:53:25;52.80;;;23.02;;
25381;SDS011;16307;42.896;20.874;2024-02-04T15:56:12;50.60;;;22.30;;
25381;SDS011;16307;42.896;20.874;2024-02-04T15:59:05;61.28;;;22.73;;
25381;SDS011;16307;42.896;20.874;2024-02-04T16:01:56;48.25;;;22.15;;
25381;SDS011;16307;42.896;20.874;2024-02-04T16:04:43;58.15;;;23.70;;
25381;SDS011;16307;42.896;20.874;2024-02-04T16:07:37;47.28;;;21.60;;
25381;SDS011;16307;42.896;20.874;2024-02-04T16:10:47;65.97;;;28.95;;
25381;SDS011;16307;42.896;20.874;2024-02-04T16:13:52;67.22;;;30.92;;
25381;SDS011;16307;42.896;20.874;2024-02-04T16:16:42;71.43;;;31.17;;
25381;SDS011;16307;42.896;20.874;2024-02-04T16:19:32;68.03;;;30.70;;
25381;SDS011;16307;42.896;20.874;2024-02-04T16:22:20;81.32;;;33.20;;
25381;SDS011;16307;42.896;20.874;2024-02-04T16:25:10;72.15;;;32.35;;